Time;durP1;ratioP1;P1;durP2;ratioP2;P2;SDS_P1;SDS_P2;PMS_P1;PMS_P2;Temp;Humidity;BMP_temperature;BMP_pressure;BME280_temperature;BME280_humidity;BME280_pressure;Samples;Min_cycle;Max_cycle;Signal;HPM_P1;HPM_P2
2024/01/12 00:00:16;;;;;;;88.60;26.25;;;-0.80;99.90;;;;;;5069208;28;20103;-68
2024/01/12 00:02:42;;;;;;;68.30;23.17;;;-0.70;99.90;;;;;;5065926;28;20040;-65
2024/01/12 00:05:08;;;;;;;90.85;26.77;;;-0.80;99.90;;;;;;5066287;28;20048;-65
2024/01/12 00:07:33;;;;;;;83.28;26.33;;;-0.70;99.90;;;;;;5073436;28;20476;-65
2024/01/12 00:09:59;;;;;;;73.93;23.95;;;-0.70;99.90;;;;;;5078616;28;20381;-65
2024/01/12 00:12:25;;;;;;;83.43;25.95;;;-0.80;99.90;;;;;;5078468;28;20035;-65
2024/01/12 00:14:51;;;;;;;68.05;23.20;;;-0.70;99.90;;;;;;5069414;28;20391;-65
2024/01/12 00:17:19;;;;;;;69.72;24.30;;;-0.70;99.90;;;;;;5072744;28;20024;-65
2024/01/12 00:19:48;;;;;;;71.30;21.58;;;-0.50;99.90;;;;;;5076490;28;20387;-67
2024/01/12 00:22:14;;;;;;;67.80;20.05;;;-0.50;99.90;;;;;;5071499;28;20496;-67
2024/01/12 00:24:39;;;;;;;60.75;19.15;;;-0.40;99.90;;;;;;5075751;28;20043;-67
2024/01/12 00:27:05;;;;;;;66.85;20.35;;;-0.40;99.90;;;;;;5076563;28;20032;-67
2024/01/12 00:29:31;;;;;;;64.30;22.25;;;-0.40;99.90;;;;;;5080066;28;20031;-65
2024/01/12 00:31:56;;;;;;;76.47;23.50;;;-0.40;99.90;;;;;;5068751;28;20246;-66
2024/01/12 00:34:23;;;;;;;68.65;21.70;;;-0.50;99.90;;;;;;5075185;28;20021;-65
2024/01/12 00:36:49;;;;;;;62.15;20.38;;;-0.50;99.90;;;;;;5071672;28;20032;-66
2024/01/12 00:39:17;;;;;;;65.65;22.67;;;-0.60;99.90;;;;;;5075010;28;20366;-65
2024/01/12 00:41:42;;;;;;;60.78;21.35;;;-0.50;99.90;;;;;;5074996;28;20435;-65
2024/01/12 00:44:08;;;;;;;59.90;19.77;;;-0.50;99.90;;;;;;5079114;28;20153;-65
2024/01/12 00:46:34;;;;;;;73.22;21.33;;;-0.50;99.90;;;;;;5071672;28;20060;-64
2024/01/12 00:48:59;;;;;;;57.42;19.98;;;-0.40;99.90;;;;;;5079371;28;20113;-66
2024/01/12 00:51:25;;;;;;;74.28;23.27;;;-0.40;99.90;;;;;;5077359;28;20033;-66
2024/01/12 00:53:51;;;;;;;71.72;22.40;;;-0.40;99.90;;;;;;5077688;28;20024;-65
2024/01/12 00:56:16;;;;;;;66.78;22.38;;;-0.40;99.90;;;;;;5078891;28;20107;-65
2024/01/12 00:58:42;;;;;;;68.85;22.15;;;-0.40;99.90;;;;;;5080836;28;20099;-66
2024/01/12 01:01:09;;;;;;;66.78;19.98;;;-0.40;99.90;;;;;;5082113;28;20020;-67
2024/01/12 01:03:36;;;;;;;66.85;20.70;;;-0.30;99.90;;;;;;5083452;28;20113;-66
2024/01/12 01:06:02;;;;;;;57.67;18.88;;;-0.40;99.90;;;;;;5081741;28;20059;-66
2024/01/12 01:08:27;;;;;;;70.55;21.38;;;-0.40;99.90;;;;;;5091967;28;20032;-65
2024/01/12 01:10:53;;;;;;;65.82;22.90;;;-0.40;99.90;;;;;;5083742;28;20028;-66
2024/01/12 01:13:19;;;;;;;75.93;21.83;;;-0.40;99.90;;;;;;5082461;28;20391;-66
2024/01/12 01:15:44;;;;;;;73.90;21.85;;;-0.50;99.90;;;;;;5082509;28;20028;-66
2024/01/12 01:18:10;;;;;;;73.55;20.13;;;-0.50;99.90;;;;;;5085205;28;20517;-66
2024/01/12 01:20:37;;;;;;;64.18;19.92;;;-0.50;99.90;;;;;;5083971;28;20016;-66
2024/01/12 01:23:03;;;;;;;67.72;21.23;;;-0.50;99.90;;;;;;5085371;28;20624;-66
2024/01/12 01:25:29;;;;;;;65.97;21.52;;;-0.40;99.90;;;;;;5089169;28;20052;-66
2024/01/12 01:27:55;;;;;;;62.53;20.33;;;-0.40;99.90;;;;;;5083175;28;20103;-66
2024/01/12 01:30:21;;;;;;;64.15;20.10;;;-0.40;99.90;;;;;;5080565;28;20547;-66
2024/01/12 01:32:48;;;;;;;68.93;21.08;;;-0.40;99.90;;;;;;5080575;28;20021;-66
2024/01/12 01:35:14;;;;;;;59.20;20.15;;;-0.30;99.90;;;;;;5082766;28;20475;-65
2024/01/12 01:37:40;;;;;;;64.85;21.77;;;-0.30;99.90;;;;;;5082531;28;20515;-65
2024/01/12 01:40:07;;;;;;;64.78;21.40;;;-0.30;99.90;;;;;;5082563;28;20019;-66
2024/01/12 01:42:33;;;;;;;59.92;21.08;;;-0.30;99.90;;;;;;5077117;28;20028;-65
2024/01/12 01:44:59;;;;;;;71.30;22.70;;;-0.40;99.90;;;;;;5084391;28;20020;-66
2024/01/12 01:47:25;;;;;;;59.35;20.13;;;-0.40;99.90;;;;;;5083118;28;20091;-66
2024/01/12 01:49:51;;;;;;;80.05;23.90;;;-0.50;99.90;;;;;;5081212;28;20085;-66
2024/01/12 01:52:18;;;;;;;69.65;21.05;;;-0.50;99.90;;;;;;5090153;28;20040;-66
2024/01/12 01:54:44;;;;;;;58.67;19.42;;;-0.40;99.90;;;;;;5083277;28;20423;-65
2024/01/12 01:57:10;;;;;;;69.75;20.05;;;-0.40;99.90;;;;;;5082428;28;20033;-64
2024/01/12 01:59:36;;;;;;;59.65;19.60;;;-0.40;99.90;;;;;;5080001;28;20031;-63
2024/01/12 02:02:03;;;;;;;65.95;20.90;;;-0.40;99.90;;;;;;5078743;28;20041;-64
2024/01/12 02:04:29;;;;;;;73.32;22.67;;;-0.30;99.90;;;;;;5081571;28;20035;-64
2024/01/12 02:06:55;;;;;;;66.15;22.80;;;-0.30;99.90;;;;;;5087369;28;20040;-64
2024/01/12 02:09:22;;;;;;;70.25;22.75;;;-0.30;99.90;;;;;;5089435;28;20026;-64
2024/01/12 02:11:47;;;;;;;75.20;22.30;;;-0.30;99.90;;;;;;5079197;28;20024;-64
2024/01/12 02:14:13;;;;;;;78.45;22.27;;;-0.30;99.90;;;;;;5082081;28;20074;-64
2024/01/12 02:16:39;;;;;;;73.57;21.25;;;-0.30;99.90;;;;;;5081812;28;20031;-64
2024/01/12 02:19:04;;;;;;;66.95;21.90;;;-0.30;99.90;;;;;;5081211;28;20415;-64
2024/01/12 02:21:30;;;;;;;78.22;24.52;;;-0.30;99.90;;;;;;5081274;28;20047;-64
2024/01/12 02:23:56;;;;;;;74.55;23.42;;;-0.30;99.90;;;;;;5079739;28;20025;-65
2024/01/12 02:26:22;;;;;;;83.43;23.95;;;-0.40;99.90;;;;;;5082641;28;20055;-64
2024/01/12 02:28:47;;;;;;;73.60;22.63;;;-0.40;99.90;;;;;;5082605;28;20521;-64
2024/01/12 02:31:15;;;;;;;70.47;22.25;;;-0.40;99.90;;;;;;5079438;28;20024;-64
2024/01/12 02:33:40;;;;;;;72.90;21.90;;;-0.40;99.90;;;;;;5079768;28;20031;-64
2024/01/12 02:36:07;;;;;;;73.55;23.88;;;-0.30;99.90;;;;;;5082151;28;20032;-64
2024/01/12 02:38:33;;;;;;;78.03;24.90;;;-0.30;99.90;;;;;;5079948;28;20024;-64
2024/01/12 02:40:58;;;;;;;77.60;22.52;;;-0.40;99.90;;;;;;5079721;28;20073;-65
2024/01/12 02:43:24;;;;;;;75.53;21.98;;;-0.40;99.90;;;;;;5082310;28;20016;-64
2024/01/12 02:45:50;;;;;;;83.13;23.58;;;-0.40;99.90;;;;;;5079432;28;20513;-64
2024/01/12 02:48:15;;;;;;;74.90;20.92;;;-0.40;99.90;;;;;;5088991;28;20028;-64
2024/01/12 02:50:41;;;;;;;77.22;21.67;;;-0.40;99.90;;;;;;5080543;28;20456;-64
2024/01/12 02:53:07;;;;;;;80.30;23.67;;;-0.40;99.90;;;;;;5083701;28;20028;-64
2024/01/12 02:55:32;;;;;;;76.95;23.17;;;-0.30;99.90;;;;;;5079582;28;20043;-64
2024/01/12 02:57:58;;;;;;;76.05;23.85;;;-0.40;99.90;;;;;;5082086;28;20028;-64
2024/01/12 03:00:24;;;;;;;87.55;25.85;;;-0.30;99.90;;;;;;5085580;28;20040;-64
2024/01/12 03:02:50;;;;;;;72.95;23.90;;;-0.40;99.90;;;;;;5080802;28;20057;-65
2024/01/12 03:05:15;;;;;;;77.68;24.02;;;-0.40;99.90;;;;;;5082037;28;20407;-64
2024/01/12 03:07:41;;;;;;;84.40;25.50;;;-0.40;99.90;;;;;;5079136;28;20029;-67
2024/01/12 03:10:07;;;;;;;94.13;25.80;;;-0.40;99.90;;;;;;5085668;28;20028;-66
2024/01/12 03:12:32;;;;;;;80.60;23.50;;;-0.40;99.90;;;;;;5086356;28;20032;-65
2024/01/12 03:14:58;;;;;;;85.35;25.88;;;-0.40;99.90;;;;;;5083238;28;20133;-66
2024/01/12 03:17:23;;;;;;;87.45;24.75;;;-0.30;99.90;;;;;;5084225;28;20093;-66
2024/01/12 03:19:49;;;;;;;93.40;25.50;;;-0.30;99.90;;;;;;5081806;28;20032;-67
2024/01/12 03:22:15;;;;;;;83.55;26.15;;;-0.30;99.90;;;;;;5079106;28;20016;-66
2024/01/12 03:24:40;;;;;;;79.25;25.40;;;-0.30;99.90;;;;;;5084779;28;20032;-66
2024/01/12 03:27:06;;;;;;;77.28;23.15;;;-0.30;99.90;;;;;;5089151;28;20032;-66
2024/01/12 03:29:32;;;;;;;78.10;22.98;;;-0.40;99.90;;;;;;5082081;28;20028;-66
2024/01/12 03:31:57;;;;;;;82.30;23.88;;;-0.30;99.90;;;;;;5080740;28;20035;-66
2024/01/12 03:34:23;;;;;;;80.10;24.20;;;-0.30;99.90;;;;;;5086657;28;20039;-66
2024/01/12 03:36:48;;;;;;;84.32;26.00;;;-0.20;99.90;;;;;;5083619;28;20073;-66
2024/01/12 03:39:14;;;;;;;74.70;23.08;;;-0.30;99.90;;;;;;5091615;28;20115;-66
2024/01/12 03:41:40;;;;;;;85.32;26.25;;;-0.30;99.90;;;;;;5081962;28;20024;-65
2024/01/12 03:44:05;;;;;;;74.78;25.00;;;-0.20;99.90;;;;;;5080906;28;20125;-66
2024/01/12 03:46:31;;;;;;;86.72;24.33;;;-0.20;99.90;;;;;;5087380;28;20025;-66
2024/01/12 03:48:56;;;;;;;88.28;26.63;;;-0.30;99.90;;;;;;5089635;28;20144;-66
2024/01/12 03:51:22;;;;;;;90.45;25.98;;;-0.20;99.90;;;;;;5080333;28;20024;-66
2024/01/12 03:53:48;;;;;;;85.70;24.00;;;-0.30;99.90;;;;;;5085593;28;20085;-66
2024/01/12 03:56:13;;;;;;;89.15;26.05;;;-0.30;99.90;;;;;;5081755;28;20352;-66
2024/01/12 03:58:39;;;;;;;88.38;24.05;;;-0.30;99.90;;;;;;5083066;28;20025;-66
2024/01/12 04:01:07;;;;;;;74.55;24.42;;;-0.40;99.90;;;;;;5081030;28;20028;-66
2024/01/12 04:03:33;;;;;;;79.80;24.75;;;-0.40;99.90;;;;;;5084972;28;20041;-66
2024/01/12 04:05:59;;;;;;;86.57;23.50;;;-0.40;99.90;;;;;;5083999;28;20073;-66
2024/01/12 04:08:25;;;;;;;80.10;24.02;;;-0.40;99.90;;;;;;5079698;28;20060;-66
2024/01/12 04:10:50;;;;;;;82.68;24.88;;;-0.40;99.90;;;;;;5082024;28;20581;-66
2024/01/12 04:13:16;;;;;;;92.45;27.63;;;-0.50;99.90;;;;;;5082884;28;20048;-66
2024/01/12 04:15:43;;;;;;;79.65;25.13;;;-0.50;99.90;;;;;;5080138;28;20079;-66
2024/01/12 04:18:09;;;;;;;92.13;25.13;;;-0.40;99.90;;;;;;5082291;28;20046;-66
2024/01/12 04:20:34;;;;;;;94.18;27.15;;;-0.40;99.90;;;;;;5078499;28;20024;-66
2024/01/12 04:23:00;;;;;;;90.43;24.98;;;-0.50;99.90;;;;;;5079896;28;20032;-66
2024/01/12 04:25:25;;;;;;;87.97;24.73;;;-0.40;99.90;;;;;;5080165;28;20028;-66
2024/01/12 04:27:51;;;;;;;93.60;23.95;;;-0.50;99.90;;;;;;5085762;28;20024;-67
2024/01/12 04:30:16;;;;;;;80.95;25.48;;;-0.40;99.90;;;;;;5081661;28;20441;-65
2024/01/12 04:32:42;;;;;;;94.05;25.67;;;-0.40;99.90;;;;;;5075253;28;20052;-66
2024/01/12 04:35:09;;;;;;;96.95;25.83;;;-0.40;99.90;;;;;;5082571;28;20092;-66
2024/01/12 04:37:34;;;;;;;81.68;24.30;;;-0.40;99.90;;;;;;5079930;28;20029;-66
2024/01/12 04:40:00;;;;;;;84.38;24.52;;;-0.30;99.90;;;;;;5078334;28;20047;-66
2024/01/12 04:42:26;;;;;;;87.03;26.00;;;-0.20;99.90;;;;;;5078978;28;20024;-66
2024/01/12 04:44:51;;;;;;;89.50;25.15;;;-0.20;99.90;;;;;;5079206;28;20111;-67
2024/01/12 04:47:18;;;;;;;65.72;20.58;;;-0.10;99.90;;;;;;5080146;28;20024;-67
2024/01/12 04:49:44;;;;;;;84.32;24.77;;;-0.20;99.90;;;;;;5084718;28;20025;-67
2024/01/12 04:52:09;;;;;;;89.47;24.77;;;-0.20;99.90;;;;;;5082047;28;20134;-67
2024/01/12 04:54:35;;;;;;;80.25;24.20;;;-0.20;99.90;;;;;;5076829;28;20020;-66
2024/01/12 04:57:00;;;;;;;73.10;22.95;;;-0.20;99.90;;;;;;5080449;28;20017;-66
2024/01/12 04:59:26;;;;;;;84.00;23.48;;;-0.10;99.90;;;;;;5075548;28;20020;-66
2024/01/12 05:01:51;;;;;;;74.88;23.27;;;-0.10;99.90;;;;;;5079671;28;20433;-66
2024/01/12 05:04:17;;;;;;;83.63;23.05;;;-0.10;99.90;;;;;;5080548;28;20040;-66
2024/01/12 05:06:43;;;;;;;88.15;24.67;;;-0.10;99.90;;;;;;5077649;28;20486;-66
2024/01/12 05:09:08;;;;;;;82.75;24.98;;;-0.10;99.90;;;;;;5074114;28;20033;-66
2024/01/12 05:11:34;;;;;;;74.68;24.88;;;-0.20;99.90;;;;;;5083220;28;20475;-67
2024/01/12 05:14:00;;;;;;;87.28;25.20;;;-0.20;99.90;;;;;;5080136;28;20107;-67
2024/01/12 05:16:26;;;;;;;81.18;24.38;;;-0.30;99.90;;;;;;5078676;28;20026;-67
2024/01/12 05:18:51;;;;;;;83.20;24.30;;;-0.30;99.90;;;;;;5078514;28;20055;-67
2024/01/12 05:21:17;;;;;;;84.13;23.60;;;-0.30;99.90;;;;;;5079385;28;20087;-67
2024/01/12 05:23:46;;;;;;;80.18;22.73;;;-0.30;99.90;;;;;;5082787;28;20016;-65
2024/01/12 05:26:13;;;;;;;91.78;25.10;;;-0.40;99.90;;;;;;5077962;28;20032;-66
2024/01/12 05:28:38;;;;;;;86.13;23.30;;;-0.40;99.90;;;;;;5076837;28;20546;-65
2024/01/12 05:31:04;;;;;;;79.78;22.70;;;-0.40;99.90;;;;;;5082640;28;20037;-65
2024/01/12 05:33:29;;;;;;;78.03;23.10;;;-0.30;99.90;;;;;;5079404;28;20028;-65
2024/01/12 05:35:55;;;;;;;80.93;21.67;;;-0.30;99.90;;;;;;5083639;28;20035;-65
2024/01/12 05:38:21;;;;;;;78.22;18.48;;;-0.30;99.90;;;;;;5080648;28;20382;-65
2024/01/12 05:40:46;;;;;;;75.65;23.67;;;-0.20;99.90;;;;;;5078777;28;20024;-65
2024/01/12 05:43:12;;;;;;;85.18;22.65;;;-0.20;99.90;;;;;;5081206;28;20065;-67
2024/01/12 05:45:37;;;;;;;76.45;21.27;;;-0.20;99.90;;;;;;5087751;28;20068;-67
2024/01/12 05:48:03;;;;;;;68.18;20.25;;;-0.30;99.90;;;;;;5081583;28;20040;-65
2024/01/12 05:50:29;;;;;;;77.32;21.75;;;-0.30;99.90;;;;;;5091221;28;20127;-67
2024/01/12 05:52:55;;;;;;;69.22;18.77;;;-0.30;99.90;;;;;;5088482;28;20356;-67
2024/01/12 05:55:23;;;;;;;76.65;20.30;;;-0.40;99.90;;;;;;5078928;28;20369;-66
2024/01/12 05:57:49;;;;;;;75.75;18.65;;;-0.30;99.90;;;;;;5081483;28;20019;-65
2024/01/12 06:00:16;;;;;;;71.13;20.15;;;-0.40;99.90;;;;;;5080666;28;20024;-67
2024/01/12 06:02:41;;;;;;;83.53;21.52;;;-0.40;99.90;;;;;;5085829;28;20388;-66
2024/01/12 06:05:07;;;;;;;83.32;23.92;;;-0.30;99.90;;;;;;5079979;28;20035;-66
2024/01/12 06:07:33;;;;;;;83.47;23.27;;;-0.30;99.90;;;;;;5090071;28;20478;-65
2024/01/12 06:09:58;;;;;;;74.82;22.13;;;-0.30;99.90;;;;;;5080629;28;20111;-65
2024/01/12 06:12:24;;;;;;;81.00;22.35;;;-0.30;99.90;;;;;;5082474;28;20081;-65
2024/01/12 06:14:50;;;;;;;80.65;22.75;;;-0.30;99.90;;;;;;5081839;28;20480;-65
2024/01/12 06:17:15;;;;;;;62.10;18.77;;;-0.30;99.90;;;;;;5083143;28;20028;-65
2024/01/12 06:19:41;;;;;;;74.80;20.65;;;-0.40;99.90;;;;;;5079612;28;20359;-66
2024/01/12 06:22:09;;;;;;;75.75;20.15;;;-0.40;99.90;;;;;;5088313;28;20040;-67
2024/01/12 06:24:35;;;;;;;75.28;19.63;;;-0.40;99.90;;;;;;5084108;28;20069;-67
2024/01/12 06:27:00;;;;;;;77.28;19.65;;;-0.40;99.90;;;;;;5082296;28;20432;-65
2024/01/12 06:29:26;;;;;;;68.47;17.50;;;-0.30;99.90;;;;;;5082054;28;20028;-66
2024/01/12 06:31:52;;;;;;;60.75;17.48;;;-0.30;99.90;;;;;;5081647;28;20035;-67
2024/01/12 06:34:17;;;;;;;58.20;16.00;;;-0.30;99.90;;;;;;5076452;28;20036;-67
2024/01/12 06:36:43;;;;;;;70.38;17.05;;;-0.30;99.90;;;;;;5079965;28;20115;-65
2024/01/12 06:39:09;;;;;;;63.80;14.90;;;-0.30;99.90;;;;;;5079604;28;20488;-67
2024/01/12 06:41:41;;;;;;;56.08;11.88;;;-0.40;99.90;;;;;;5077237;28;20166;-68
2024/01/12 06:44:07;;;;;;;50.67;13.45;;;0.60;99.90;;;;;;5081098;28;20019;-67
2024/01/12 06:46:34;;;;;;;46.63;13.45;;;-0.40;99.90;;;;;;5075346;28;20038;-66
2024/01/12 06:49:00;;;;;;;41.08;12.18;;;-0.40;99.90;;;;;;5074970;28;20396;-67
2024/01/12 06:51:26;;;;;;;48.28;12.82;;;-0.40;99.90;;;;;;5074071;28;20028;-68
2024/01/12 06:53:51;;;;;;;52.75;11.50;;;-0.40;99.90;;;;;;5080554;28;20411;-65
2024/01/12 06:56:20;;;;;;;48.63;11.73;;;-0.40;99.90;;;;;;5087413;28;20106;-66
2024/01/12 06:58:46;;;;;;;48.00;11.73;;;-0.50;99.90;;;;;;5082788;28;20020;-66
2024/01/12 07:01:12;;;;;;;50.78;13.30;;;-0.50;99.90;;;;;;5083739;28;20036;-65
2024/01/12 07:03:37;;;;;;;45.75;11.63;;;-0.40;99.90;;;;;;5071896;28;20025;-66
2024/01/12 07:06:04;;;;;;;47.63;12.63;;;-0.40;99.90;;;;;;5084758;28;20034;-66
2024/01/12 07:08:29;;;;;;;48.45;12.18;;;-0.40;99.90;;;;;;5071137;28;20398;-66
2024/01/12 07:10:55;;;;;;;48.92;12.13;;;;;;;;;;5082348;28;20027;-66
2024/01/12 07:13:21;;;;;;;49.70;11.98;;;-0.40;99.90;;;;;;5079828;28;20044;-66
2024/01/12 07:15:47;;;;;;;47.75;12.32;;;-0.40;99.90;;;;;;5077843;28;20059;-66
2024/01/12 07:18:12;;;;;;;46.83;11.13;;;-0.50;99.90;;;;;;5082652;28;20028;-65
2024/01/12 07:20:38;;;;;;;34.88;10.82;;;-0.40;99.90;;;;;;5076670;28;20447;-65
2024/01/12 07:23:03;;;;;;;39.95;11.63;;;-0.40;99.90;;;;;;5079550;28;20024;-67
2024/01/12 07:25:29;;;;;;;39.83;11.98;;;-0.80;99.90;;;;;;5082729;28;20085;-66
2024/01/12 07:27:55;;;;;;;43.47;11.52;;;-0.40;99.90;;;;;;5075488;28;20081;-65
2024/01/12 07:30:21;;;;;;;34.30;11.23;;;-0.40;99.90;;;;;;5074230;28;20130;-65
2024/01/12 07:32:46;;;;;;;37.40;12.88;;;-0.40;99.90;;;;;;5073428;28;20408;-67
2024/01/12 07:35:12;;;;;;;39.53;12.65;;;-0.30;99.90;;;;;;5080773;28;20028;-68
2024/01/12 07:37:38;;;;;;;44.30;14.02;;;-0.30;99.90;;;;;;5076395;28;20082;-68
2024/01/12 07:40:04;;;;;;;38.95;14.02;;;-0.40;99.90;;;;;;5080905;28;20427;-68
2024/01/12 07:42:30;;;;;;;38.50;13.45;;;-0.40;99.90;;;;;;5075661;28;20039;-68
2024/01/12 07:44:56;;;;;;;35.22;12.18;;;-0.30;99.90;;;;;;5077639;28;20027;-68
2024/01/12 07:47:22;;;;;;;34.55;11.80;;;-0.30;99.90;;;;;;5075765;28;20048;-66
2024/01/12 07:49:47;;;;;;;33.58;11.50;;;-0.20;99.90;;;;;;5080480;28;20036;-68
2024/01/12 07:52:13;;;;;;;32.42;13.15;;;-0.10;99.90;;;;;;5076000;28;20105;-68
2024/01/12 07:54:38;;;;;;;33.38;12.80;;;0.00;99.90;;;;;;5073638;28;20096;-68
2024/01/12 07:57:04;;;;;;;30.13;10.82;;;0.00;99.90;;;;;;5076946;28;20028;-68
2024/01/12 07:59:30;;;;;;;32.45;11.98;;;0.00;99.90;;;;;;5080097;28;20055;-68
2024/01/12 08:01:55;;;;;;;29.83;11.63;;;0.00;99.90;;;;;;5072292;28;20047;-68
2024/01/12 08:04:21;;;;;;;28.35;8.57;;;0.00;99.90;;;;;;5075542;28;20559;-69
2024/01/12 08:06:47;;;;;;;28.58;10.63;;;0.00;99.90;;;;;;5068105;28;20033;-69
2024/01/12 08:09:13;;;;;;;29.15;10.32;;;0.00;99.90;;;;;;5067326;28;20036;-68
2024/01/12 08:11:39;;;;;;;29.13;11.43;;;0.00;99.90;;;;;;5066037;28;20027;-68
2024/01/12 08:14:05;;;;;;;22.33;8.32;;;0.00;99.90;;;;;;5073456;28;20036;-68
2024/01/12 08:16:31;;;;;;;26.98;10.98;;;0.00;99.90;;;;;;5070228;28;20034;-69
2024/01/12 08:18:57;;;;;;;23.50;8.90;;;0.00;99.90;;;;;;5065365;28;20032;-69
2024/01/12 08:21:22;;;;;;;24.55;9.38;;;0.00;99.90;;;;;;5062304;28;20535;-68
2024/01/12 08:23:48;;;;;;;24.42;10.32;;;0.00;99.90;;;;;;5075270;28;20107;-68
2024/01/12 08:26:13;;;;;;;21.33;7.93;;;0.00;99.90;;;;;;5082708;28;20094;-67
2024/01/12 08:28:39;;;;;;;25.75;10.38;;;0.00;99.90;;;;;;5080170;28;20057;-68
2024/01/12 08:31:05;;;;;;;27.15;10.52;;;0.00;99.90;;;;;;5071900;28;20040;-68
2024/01/12 08:33:31;;;;;;;28.20;11.32;;;-0.10;99.90;;;;;;5071437;28;20519;-65
2024/01/12 08:35:56;;;;;;;27.73;10.70;;;0.00;99.90;;;;;;5070339;28;20486;-66
2024/01/12 08:38:22;;;;;;;27.33;9.52;;;0.00;99.90;;;;;;5080816;28;20028;-66
2024/01/12 08:40:48;;;;;;;27.85;11.55;;;0.00;99.90;;;;;;5071680;28;20448;-65
2024/01/12 08:43:14;;;;;;;25.50;10.82;;;0.00;99.90;;;;;;5070936;28;20490;-66
2024/01/12 08:45:39;;;;;;;24.92;10.02;;;0.00;99.90;;;;;;5071275;28;20028;-67
2024/01/12 08:48:05;;;;;;;15.82;6.10;;;0.00;99.90;;;;;;5071986;28;20028;-67
2024/01/12 08:50:31;;;;;;;17.38;6.93;;;0.10;99.90;;;;;;5075229;28;20032;-66
2024/01/12 08:52:58;;;;;;;23.20;10.15;;;0.00;99.90;;;;;;5082716;28;20031;-66
2024/01/12 08:55:24;;;;;;;15.80;6.07;;;0.00;99.90;;;;;;5083883;28;20016;-67
2024/01/12 08:57:52;;;;;;;17.30;6.20;;;0.00;99.90;;;;;;5090204;28;20555;-66
2024/01/12 09:00:17;;;;;;;30.42;10.77;;;0.00;99.90;;;;;;5074225;28;20103;-68
2024/01/12 09:02:43;;;;;;;31.52;11.57;;;0.00;99.90;;;;;;5082499;28;20158;-67
2024/01/12 09:05:09;;;;;;;33.88;12.95;;;0.00;99.90;;;;;;5086722;28;20020;-67
2024/01/12 09:07:34;;;;;;;27.20;10.95;;;0.00;99.90;;;;;;5078316;28;20036;-66
2024/01/12 09:10:01;;;;;;;23.35;9.07;;;0.00;99.90;;;;;;5080385;28;20089;-68
2024/01/12 09:12:26;;;;;;;20.98;6.60;;;0.00;99.90;;;;;;5086900;28;20103;-67
2024/01/12 09:14:52;;;;;;;24.00;9.68;;;0.00;99.90;;;;;;5082465;28;20088;-67
2024/01/12 09:17:18;;;;;;;24.02;9.43;;;0.10;99.90;;;;;;5071125;28;20091;-67
2024/01/12 09:19:44;;;;;;;26.33;9.68;;;0.00;99.90;;;;;;5084880;28;20178;-67
2024/01/12 09:22:10;;;;;;;23.40;9.88;;;-0.10;99.90;;;;;;5085650;28;20070;-67
2024/01/12 09:24:36;;;;;;;19.98;9.07;;;-0.10;99.90;;;;;;5089795;28;20024;-67
2024/01/12 09:27:01;;;;;;;28.17;11.10;;;-0.10;99.90;;;;;;5087941;28;20114;-68
2024/01/12 09:29:27;;;;;;;29.60;11.00;;;0.00;99.90;;;;;;5083135;28;20021;-68
2024/01/12 09:31:52;;;;;;;32.22;12.40;;;0.00;99.90;;;;;;5089684;28;20050;-67
2024/01/12 09:34:18;;;;;;;26.92;10.75;;;0.00;99.90;;;;;;5084076;28;20494;-67
2024/01/12 09:36:44;;;;;;;27.50;10.70;;;0.00;99.90;;;;;;5082769;28;20067;-67
2024/01/12 09:39:14;;;;;;;30.90;11.50;;;0.00;99.90;;;;;;5081098;28;20028;-68
2024/01/12 09:41:49;;;;;;;29.48;10.82;;;0.00;99.90;;;;;;5080091;28;20074;-67
2024/01/12 09:44:20;;;;;;;33.08;9.88;;;0.10;99.90;;;;;;5081796;28;20042;-67
2024/01/12 09:46:56;;;;;;;29.58;10.98;;;0.10;99.90;;;;;;5069843;28;20028;-67
2024/01/12 09:49:23;;;;;;;33.50;10.15;;;0.10;99.90;;;;;;5081685;28;20044;-67
2024/01/12 09:51:49;;;;;;;30.85;10.27;;;0.10;99.90;;;;;;5077453;28;20028;-67
2024/01/12 09:54:16;;;;;;;29.92;10.35;;;0.10;99.90;;;;;;5080100;28;20536;-67
2024/01/12 09:56:44;;;;;;;32.50;11.27;;;0.10;99.90;;;;;;5085072;28;20122;-67
2024/01/12 09:59:11;;;;;;;38.63;10.30;;;0.10;99.90;;;;;;5077784;28;20069;-68
2024/01/12 10:01:37;;;;;;;32.15;10.48;;;0.50;99.90;;;;;;5079386;28;20123;-67
2024/01/12 10:04:03;;;;;;;33.25;11.13;;;0.10;99.90;;;;;;5072467;28;20035;-67
2024/01/12 10:06:28;;;;;;;33.35;11.05;;;0.10;99.90;;;;;;5081540;28;20028;-67
2024/01/12 10:08:54;;;;;;;36.53;11.48;;;0.10;99.90;;;;;;5075471;28;20040;-64
2024/01/12 10:11:19;;;;;;;22.75;8.18;;;0.10;99.90;;;;;;5081779;28;20482;-65
2024/01/12 10:13:45;;;;;;;34.60;10.68;;;0.10;99.90;;;;;;5070549;28;20036;-64
2024/01/12 10:16:12;;;;;;;34.17;10.38;;;0.10;99.90;;;;;;5081962;28;20429;-65
2024/01/12 10:18:37;;;;;;;29.98;10.98;;;1.10;99.90;;;;;;5073876;28;20028;-64
2024/01/12 10:21:03;;;;;;;33.00;10.82;;;0.20;99.90;;;;;;5080376;28;20028;-65
2024/01/12 10:23:28;;;;;;;39.88;12.15;;;0.20;99.90;;;;;;5075772;28;20439;-65
2024/01/12 10:26:04;;;;;;;55.38;13.00;;;0.20;99.90;;;;;;5075340;28;20024;-65
2024/01/12 10:28:33;;;;;;;40.60;12.38;;;0.10;99.90;;;;;;5071118;28;20089;-65
2024/01/12 10:31:04;;;;;;;40.92;12.70;;;0.10;99.90;;;;;;5081197;28;20040;-65
2024/01/12 10:33:29;;;;;;;42.42;13.43;;;0.10;99.90;;;;;;5077951;28;20064;-64
2024/01/12 10:36:20;;;;;;;26.73;8.85;;;0.20;99.90;;;;;;5075593;28;20055;-65
2024/01/12 10:38:48;;;;;;;44.33;12.75;;;0.20;99.90;;;;;;5057094;28;20033;-65
2024/01/12 10:41:19;;;;;;;49.17;13.38;;;0.20;99.90;;;;;;5079913;28;20028;-65
2024/01/12 10:43:50;;;;;;;38.22;12.50;;;0.20;99.90;;;;;;5064535;28;20036;-65
2024/01/12 10:46:26;;;;;;;41.05;13.63;;;0.20;99.90;;;;;;5076929;28;20039;-64
2024/01/12 10:49:21;;;;;;;41.75;12.43;;;0.30;99.90;;;;;;5080999;28;20112;-64
2024/01/12 10:52:38;;;;;;;36.90;11.23;;;0.20;99.90;;;;;;5074148;28;20036;-64
2024/01/12 10:55:10;;;;;;;49.20;13.20;;;0.20;99.90;;;;;;5038987;28;20400;-64
2024/01/12 10:57:37;;;;;;;37.83;11.55;;;0.10;99.90;;;;;;5075441;28;20067;-65
2024/01/12 11:00:08;;;;;;;49.55;15.20;;;0.10;99.90;;;;;;5080766;28;20032;-65
2024/01/12 11:02:34;;;;;;;54.55;16.50;;;0.10;99.90;;;;;;5075477;28;20551;-65
2024/01/12 11:05:00;;;;;;;55.65;17.35;;;0.10;99.90;;;;;;5078659;28;20083;-65
2024/01/12 11:07:26;;;;;;;24.27;9.27;;;0.10;99.90;;;;;;5079259;28;20488;-64
2024/01/12 11:09:53;;;;;;;53.38;15.00;;;0.10;99.90;;;;;;5074530;28;20031;-65
2024/01/12 11:12:40;;;;;;;51.25;15.07;;;0.10;99.90;;;;;;5081632;28;20032;-65
2024/01/12 11:15:07;;;;;;;52.08;16.33;;;0.10;99.90;;;;;;5074538;28;20039;-65
2024/01/12 11:17:35;;;;;;;43.60;14.40;;;0.10;99.90;;;;;;5083726;28;20115;-67
2024/01/12 11:20:05;;;;;;;54.28;16.50;;;0.20;99.90;;;;;;5072149;28;20029;-66
2024/01/12 11:22:30;;;;;;;54.33;16.88;;;0.20;99.90;;;;;;5075521;28;20059;-67
2024/01/12 11:24:58;;;;;;;70.90;17.95;;;0.20;99.90;;;;;;5079806;28;20037;-67
2024/01/12 11:27:34;;;;;;;57.72;16.23;;;0.20;99.90;;;;;;5075054;28;20021;-67
2024/01/12 11:30:01;;;;;;;59.70;17.90;;;0.30;99.90;;;;;;5070526;28;20025;-67
2024/01/12 11:32:28;;;;;;;56.40;17.73;;;0.30;99.90;;;;;;5075064;28;20095;-67
2024/01/12 11:35:09;;;;;;;55.90;16.42;;;0.40;99.90;;;;;;5074047;28;20222;-67
2024/01/12 11:37:35;;;;;;;66.45;17.88;;;2.50;99.90;;;;;;5065170;28;20451;-67
2024/01/12 11:40:12;;;;;;;56.83;19.45;;;0.50;99.90;;;;;;5070842;28;20035;-68
2024/01/12 11:42:39;;;;;;;59.60;17.88;;;0.50;99.90;;;;;;5068317;28;20032;-67
2024/01/12 11:45:09;;;;;;;57.55;17.50;;;0.50;99.90;;;;;;5071068;28;20027;-67
2024/01/12 11:47:36;;;;;;;;;;;0.50;99.90;;;;;;5065129;28;20088;-67
2024/01/12 11:50:03;;;;;;;58.83;16.95;;;0.50;99.90;;;;;;5072607;28;19915;-67
2024/01/12 11:52:28;;;;;;;54.28;16.80;;;0.50;99.90;;;;;;5076843;28;20028;-67
2024/01/12 11:54:54;;;;;;;65.43;19.10;;;0.50;99.90;;;;;;5075968;28;20046;-68
2024/01/12 11:57:21;;;;;;;55.53;17.83;;;0.60;99.90;;;;;;5069522;28;20039;-67
2024/01/12 11:59:46;;;;;;;43.83;13.20;;;0.60;99.90;;;;;;5072700;28;20024;-66
2024/01/12 12:02:12;;;;;;;52.05;16.20;;;0.60;99.90;;;;;;5066543;28;20426;-67
2024/01/12 12:04:37;;;;;;;63.33;16.85;;;0.60;99.90;;;;;;5074484;28;20054;-67
2024/01/12 12:07:03;;;;;;;56.78;16.45;;;0.70;99.90;;;;;;5074085;28;20039;-65
2024/01/12 12:09:29;;;;;;;49.00;16.20;;;0.80;99.90;;;;;;5072921;28;20040;-67
2024/01/12 12:11:54;;;;;;;49.25;14.82;;;0.80;99.90;;;;;;5070069;28;20410;-67
2024/01/12 12:14:21;;;;;;;48.45;16.88;;;0.90;99.90;;;;;;5072975;28;20058;-67
2024/01/12 12:16:47;;;;;;;51.13;17.00;;;0.90;99.90;;;;;;5078026;28;20116;-68
2024/01/12 12:19:13;;;;;;;39.22;14.38;;;0.90;99.90;;;;;;5074429;28;20024;-67
2024/01/12 12:21:40;;;;;;;50.67;15.90;;;0.90;99.90;;;;;;5075021;28;20392;-67
2024/01/12 12:24:06;;;;;;;53.80;16.15;;;0.90;99.90;;;;;;5068550;28;20024;-67
2024/01/12 12:26:32;;;;;;;48.08;16.10;;;1.00;99.90;;;;;;5067841;28;20026;-67